sensor_id;sensor_type;location;lat;lon;timestamp;P1;durP1;ratioP1;P2;durP2;ratioP2
5612;SDS011;2828;53.582;9.956;2022-08-01T00:01:07;17.30;;;11.00;;
5612;SDS011;2828;53.582;9.956;2022-08-01T00:03:33;16.20;;;11.00;;
5612;SDS011;2828;53.582;9.956;2022-08-01T00:05:59;16.43;;;10.70;;
5612;SDS011;2828;53.582;9.956;2022-08-01T00:08:25;16.73;;;11.57;;
5612;SDS011;2828;53.582;9.956;2022-08-01T00:10:51;15.80;;;11.33;;
5612;SDS011;2828;53.582;9.956;2022-08-01T00:13:17;15.77;;;10.83;;
5612;SDS011;2828;53.582;9.956;2022-08-01T00:15:43;18.03;;;10.67;;
5612;SDS011;2828;53.582;9.956;2022-08-01T00:18:09;17.23;;;11.00;;
5612;SDS011;2828;53.582;9.956;2022-08-01T00:20:35;18.30;;;10.80;;
5612;SDS011;2828;53.582;9.956;2022-08-01T00:23:04;14.53;;;10.37;;
5612;SDS011;2828;53.582;9.956;2022-08-01T00:25:30;16.20;;;11.00;;
5612;SDS011;2828;53.582;9.956;2022-08-01T00:27:56;12.87;;;9.57;;
5612;SDS011;2828;53.582;9.956;2022-08-01T00:30:22;22.20;;;10.27;;
5612;SDS011;2828;53.582;9.956;2022-08-01T00:32:49;15.50;;;10.27;;
5612;SDS011;2828;53.582;9.956;2022-08-01T00:35:14;15.20;;;10.73;;
5612;SDS011;2828;53.582;9.956;2022-08-01T00:37:41;16.60;;;10.50;;
5612;SDS011;2828;53.582;9.956;2022-08-01T00:40:07;14.70;;;9.87;;
5612;SDS011;2828;53.582;9.956;2022-08-01T00:42:33;16.03;;;10.87;;
5612;SDS011;2828;53.582;9.956;2022-08-01T00:44:59;16.97;;;10.23;;
5612;SDS011;2828;53.582;9.956;2022-08-01T00:47:25;13.83;;;9.83;;
5612;SDS011;2828;53.582;9.956;2022-08-01T00:49:51;15.57;;;8.80;;
5612;SDS011;2828;53.582;9.956;2022-08-01T00:52:17;17.17;;;9.97;;
5612;SDS011;2828;53.582;9.956;2022-08-01T00:54:43;15.60;;;9.53;;
5612;SDS011;2828;53.582;9.956;2022-08-01T00:57:09;14.90;;;9.00;;
5612;SDS011;2828;53.582;9.956;2022-08-01T00:59:35;15.20;;;9.20;;
5612;SDS011;2828;53.582;9.956;2022-08-01T01:02:02;22.00;;;8.07;;
5612;SDS011;2828;53.582;9.956;2022-08-01T01:04:28;13.43;;;9.10;;
5612;SDS011;2828;53.582;9.956;2022-08-01T01:06:58;11.20;;;8.23;;
5612;SDS011;2828;53.582;9.956;2022-08-01T01:09:33;12.23;;;8.47;;
5612;SDS011;2828;53.582;9.956;2022-08-01T01:14:51;17.67;;;8.97;;
5612;SDS011;2828;53.582;9.956;2022-08-01T01:17:20;15.03;;;9.03;;
5612;SDS011;2828;53.582;9.956;2022-08-01T01:19:48;13.30;;;9.27;;
5612;SDS011;2828;53.582;9.956;2022-08-01T01:22:17;15.30;;;9.37;;
5612;SDS011;2828;53.582;9.956;2022-08-01T01:27:42;15.40;;;9.73;;
5612;SDS011;2828;53.582;9.956;2022-08-01T01:30:11;15.90;;;9.83;;
5612;SDS011;2828;53.582;9.956;2022-08-01T01:32:44;18.17;;;10.20;;
5612;SDS011;2828;53.582;9.956;2022-08-01T01:35:24;19.10;;;10.00;;
5612;SDS011;2828;53.582;9.956;2022-08-01T01:37:53;19.03;;;10.03;;
5612;SDS011;2828;53.582;9.956;2022-08-01T01:40:21;18.70;;;9.97;;
5612;SDS011;2828;53.582;9.956;2022-08-01T01:42:48;18.73;;;10.60;;
5612;SDS011;2828;53.582;9.956;2022-08-01T01:45:15;16.80;;;9.97;;
5612;SDS011;2828;53.582;9.956;2022-08-01T01:47:41;18.07;;;10.40;;
5612;SDS011;2828;53.582;9.956;2022-08-01T01:50:09;15.60;;;10.37;;
5612;SDS011;2828;53.582;9.956;2022-08-01T01:52:37;23.00;;;10.90;;
5612;SDS011;2828;53.582;9.956;2022-08-01T01:55:04;19.77;;;10.57;;
5612;SDS011;2828;53.582;9.956;2022-08-01T01:57:31;21.60;;;11.23;;
5612;SDS011;2828;53.582;9.956;2022-08-01T01:59:58;15.83;;;9.50;;
5612;SDS011;2828;53.582;9.956;2022-08-01T02:02:24;15.03;;;9.40;;
5612;SDS011;2828;53.582;9.956;2022-08-01T02:04:51;18.47;;;10.70;;
5612;SDS011;2828;53.582;9.956;2022-08-01T02:07:19;18.23;;;10.00;;
5612;SDS011;2828;53.582;9.956;2022-08-01T02:09:46;16.80;;;9.90;;
5612;SDS011;2828;53.582;9.956;2022-08-01T02:12:12;14.80;;;9.23;;
5612;SDS011;2828;53.582;9.956;2022-08-01T02:14:40;24.60;;;8.13;;
5612;SDS011;2828;53.582;9.956;2022-08-01T02:17:06;13.00;;;8.60;;
5612;SDS011;2828;53.582;9.956;2022-08-01T02:19:34;14.33;;;9.47;;
5612;SDS011;2828;53.582;9.956;2022-08-01T02:22:01;17.07;;;9.20;;
5612;SDS011;2828;53.582;9.956;2022-08-01T02:24:35;13.67;;;9.13;;
5612;SDS011;2828;53.582;9.956;2022-08-01T02:27:04;11.77;;;7.83;;
5612;SDS011;2828;53.582;9.956;2022-08-01T02:30:14;11.10;;;8.90;;
5612;SDS011;2828;53.582;9.956;2022-08-01T02:32:25;10.77;;;8.97;;
5612;SDS011;2828;53.582;9.956;2022-08-01T02:34:52;13.53;;;8.30;;
5612;SDS011;2828;53.582;9.956;2022-08-01T02:37:19;10.80;;;8.37;;
5612;SDS011;2828;53.582;9.956;2022-08-01T02:39:47;10.87;;;8.40;;
5612;SDS011;2828;53.582;9.956;2022-08-01T02:42:13;13.20;;;8.97;;
5612;SDS011;2828;53.582;9.956;2022-08-01T02:44:41;14.17;;;8.23;;
5612;SDS011;2828;53.582;9.956;2022-08-01T02:47:08;11.43;;;8.70;;
5612;SDS011;2828;53.582;9.956;2022-08-01T02:49:35;15.03;;;8.30;;
5612;SDS011;2828;53.582;9.956;2022-08-01T02:52:10;23.23;;;9.10;;
5612;SDS011;2828;53.582;9.956;2022-08-01T02:54:37;13.30;;;8.80;;
5612;SDS011;2828;53.582;9.956;2022-08-01T02:57:04;15.77;;;9.40;;
5612;SDS011;2828;53.582;9.956;2022-08-01T02:59:32;11.53;;;8.40;;
5612;SDS011;2828;53.582;9.956;2022-08-01T03:01:59;13.07;;;8.80;;
5612;SDS011;2828;53.582;9.956;2022-08-01T03:04:26;14.73;;;8.83;;
5612;SDS011;2828;53.582;9.956;2022-08-01T03:06:54;12.73;;;8.30;;
5612;SDS011;2828;53.582;9.956;2022-08-01T03:09:22;12.50;;;8.40;;
5612;SDS011;2828;53.582;9.956;2022-08-01T03:11:48;11.17;;;9.17;;
5612;SDS011;2828;53.582;9.956;2022-08-01T03:14:15;12.80;;;7.90;;
5612;SDS011;2828;53.582;9.956;2022-08-01T03:16:42;17.93;;;10.07;;
5612;SDS011;2828;53.582;9.956;2022-08-01T03:19:09;12.70;;;8.97;;
5612;SDS011;2828;53.582;9.956;2022-08-01T03:21:36;12.07;;;8.80;;
5612;SDS011;2828;53.582;9.956;2022-08-01T03:24:03;12.30;;;9.23;;
5612;SDS011;2828;53.582;9.956;2022-08-01T03:26:32;13.20;;;9.00;;
5612;SDS011;2828;53.582;9.956;2022-08-01T03:29:02;15.73;;;9.40;;
5612;SDS011;2828;53.582;9.956;2022-08-01T03:31:31;11.13;;;8.30;;
5612;SDS011;2828;53.582;9.956;2022-08-01T03:33:59;18.03;;;8.20;;
5612;SDS011;2828;53.582;9.956;2022-08-01T03:36:25;9.80;;;7.80;;
5612;SDS011;2828;53.582;9.956;2022-08-01T03:38:52;11.50;;;8.43;;
5612;SDS011;2828;53.582;9.956;2022-08-01T03:41:20;21.93;;;8.70;;
5612;SDS011;2828;53.582;9.956;2022-08-01T03:43:48;9.53;;;8.10;;
5612;SDS011;2828;53.582;9.956;2022-08-01T03:46:20;13.57;;;8.13;;
5612;SDS011;2828;53.582;9.956;2022-08-01T03:48:50;12.43;;;7.20;;
5612;SDS011;2828;53.582;9.956;2022-08-01T03:51:16;10.13;;;5.80;;
5612;SDS011;2828;53.582;9.956;2022-08-01T03:53:43;7.63;;;6.03;;
5612;SDS011;2828;53.582;9.956;2022-08-01T03:56:10;6.83;;;5.60;;
5612;SDS011;2828;53.582;9.956;2022-08-01T03:58:40;10.00;;;5.90;;
5612;SDS011;2828;53.582;9.956;2022-08-01T04:01:07;8.20;;;6.87;;
5612;SDS011;2828;53.582;9.956;2022-08-01T04:03:34;7.03;;;5.87;;
5612;SDS011;2828;53.582;9.956;2022-08-01T04:06:03;9.17;;;6.70;;
5612;SDS011;2828;53.582;9.956;2022-08-01T04:08:36;7.77;;;6.30;;
5612;SDS011;2828;53.582;9.956;2022-08-01T04:11:02;7.53;;;5.67;;
5612;SDS011;2828;53.582;9.956;2022-08-01T04:13:28;9.57;;;6.50;;
5612;SDS011;2828;53.582;9.956;2022-08-01T04:15:54;7.03;;;6.33;;
5612;SDS011;2828;53.582;9.956;2022-08-01T04:18:20;5.63;;;4.93;;
5612;SDS011;2828;53.582;9.956;2022-08-01T04:20:46;11.20;;;6.10;;
5612;SDS011;2828;53.582;9.956;2022-08-01T04:23:13;8.00;;;5.30;;
5612;SDS011;2828;53.582;9.956;2022-08-01T04:25:41;5.90;;;5.20;;
5612;SDS011;2828;53.582;9.956;2022-08-01T04:28:08;7.17;;;5.87;;
5612;SDS011;2828;53.582;9.956;2022-08-01T04:30:41;11.37;;;5.80;;
5612;SDS011;2828;53.582;9.956;2022-08-01T04:33:07;9.70;;;4.90;;
5612;SDS011;2828;53.582;9.956;2022-08-01T04:35:33;7.27;;;5.47;;
5612;SDS011;2828;53.582;9.956;2022-08-01T04:38:01;10.13;;;4.90;;
5612;SDS011;2828;53.582;9.956;2022-08-01T04:40:28;5.00;;;4.47;;
5612;SDS011;2828;53.582;9.956;2022-08-01T04:42:55;9.00;;;4.40;;
5612;SDS011;2828;53.582;9.956;2022-08-01T04:45:21;6.53;;;3.80;;
5612;SDS011;2828;53.582;9.956;2022-08-01T04:47:47;4.97;;;3.77;;
5612;SDS011;2828;53.582;9.956;2022-08-01T04:50:14;4.03;;;3.67;;
5612;SDS011;2828;53.582;9.956;2022-08-01T04:52:40;4.27;;;3.87;;
5612;SDS011;2828;53.582;9.956;2022-08-01T04:55:07;3.63;;;3.40;;
5612;SDS011;2828;53.582;9.956;2022-08-01T04:57:34;3.60;;;3.30;;
5612;SDS011;2828;53.582;9.956;2022-08-01T05:00:02;7.00;;;3.80;;
5612;SDS011;2828;53.582;9.956;2022-08-01T05:02:28;4.30;;;3.80;;
5612;SDS011;2828;53.582;9.956;2022-08-01T05:04:54;4.63;;;3.53;;
5612;SDS011;2828;53.582;9.956;2022-08-01T05:07:21;6.13;;;3.10;;
5612;SDS011;2828;53.582;9.956;2022-08-01T05:09:49;4.03;;;3.17;;
5612;SDS011;2828;53.582;9.956;2022-08-01T05:12:15;9.00;;;3.47;;
5612;SDS011;2828;53.582;9.956;2022-08-01T05:14:41;6.60;;;3.30;;
5612;SDS011;2828;53.582;9.956;2022-08-01T05:17:08;7.00;;;2.83;;
5612;SDS011;2828;53.582;9.956;2022-08-01T05:19:34;7.33;;;3.00;;
5612;SDS011;2828;53.582;9.956;2022-08-01T05:22:02;3.43;;;3.23;;
5612;SDS011;2828;53.582;9.956;2022-08-01T05:24:32;3.53;;;3.23;;
5612;SDS011;2828;53.582;9.956;2022-08-01T05:26:58;3.80;;;3.60;;
5612;SDS011;2828;53.582;9.956;2022-08-01T05:29:25;4.17;;;3.23;;
5612;SDS011;2828;53.582;9.956;2022-08-01T05:31:52;4.63;;;3.80;;
5612;SDS011;2828;53.582;9.956;2022-08-01T05:34:19;6.00;;;4.40;;
5612;SDS011;2828;53.582;9.956;2022-08-01T05:36:45;7.63;;;5.10;;
5612;SDS011;2828;53.582;9.956;2022-08-01T05:39:11;7.83;;;5.50;;
5612;SDS011;2828;53.582;9.956;2022-08-01T05:41:37;11.17;;;5.80;;
5612;SDS011;2828;53.582;9.956;2022-08-01T05:44:06;12.30;;;7.13;;
5612;SDS011;2828;53.582;9.956;2022-08-01T05:46:32;9.23;;;6.63;;
5612;SDS011;2828;53.582;9.956;2022-08-01T05:48:59;8.73;;;5.37;;
5612;SDS011;2828;53.582;9.956;2022-08-01T05:51:25;15.57;;;6.10;;
5612;SDS011;2828;53.582;9.956;2022-08-01T05:53:51;12.03;;;6.80;;
5612;SDS011;2828;53.582;9.956;2022-08-01T05:56:17;14.57;;;7.07;;
5612;SDS011;2828;53.582;9.956;2022-08-01T05:58:43;10.80;;;7.83;;
5612;SDS011;2828;53.582;9.956;2022-08-01T06:01:10;21.20;;;8.20;;
5612;SDS011;2828;53.582;9.956;2022-08-01T06:03:36;11.30;;;8.07;;
5612;SDS011;2828;53.582;9.956;2022-08-01T06:06:02;10.97;;;7.97;;
5612;SDS011;2828;53.582;9.956;2022-08-01T06:08:28;14.17;;;9.43;;
5612;SDS011;2828;53.582;9.956;2022-08-01T06:10:55;17.43;;;9.20;;
5612;SDS011;2828;53.582;9.956;2022-08-01T06:13:22;9.73;;;8.10;;
5612;SDS011;2828;53.582;9.956;2022-08-01T06:15:48;12.27;;;8.47;;
5612;SDS011;2828;53.582;9.956;2022-08-01T06:18:14;10.07;;;7.90;;
5612;SDS011;2828;53.582;9.956;2022-08-01T06:20:41;9.70;;;8.00;;
5612;SDS011;2828;53.582;9.956;2022-08-01T06:23:07;15.70;;;8.57;;
5612;SDS011;2828;53.582;9.956;2022-08-01T06:25:33;13.53;;;8.90;;
5612;SDS011;2828;53.582;9.956;2022-08-01T06:27:59;10.67;;;8.27;;
5612;SDS011;2828;53.582;9.956;2022-08-01T06:30:25;10.57;;;8.63;;
5612;SDS011;2828;53.582;9.956;2022-08-01T06:32:51;10.70;;;8.90;;
5612;SDS011;2828;53.582;9.956;2022-08-01T06:35:17;18.43;;;9.00;;
5612;SDS011;2828;53.582;9.956;2022-08-01T06:37:43;9.77;;;7.80;;
5612;SDS011;2828;53.582;9.956;2022-08-01T06:40:10;17.23;;;7.40;;
5612;SDS011;2828;53.582;9.956;2022-08-01T06:42:37;11.03;;;7.07;;
5612;SDS011;2828;53.582;9.956;2022-08-01T06:45:06;13.03;;;7.97;;
5612;SDS011;2828;53.582;9.956;2022-08-01T06:47:33;10.90;;;7.40;;
5612;SDS011;2828;53.582;9.956;2022-08-01T06:49:59;9.17;;;7.27;;
5612;SDS011;2828;53.582;9.956;2022-08-01T06:52:25;12.37;;;6.50;;
5612;SDS011;2828;53.582;9.956;2022-08-01T06:54:55;9.00;;;6.27;;
5612;SDS011;2828;53.582;9.956;2022-08-01T06:57:22;13.43;;;6.90;;
5612;SDS011;2828;53.582;9.956;2022-08-01T06:59:49;16.83;;;7.20;;
5612;SDS011;2828;53.582;9.956;2022-08-01T07:02:15;17.57;;;6.80;;
5612;SDS011;2828;53.582;9.956;2022-08-01T07:04:41;9.23;;;6.03;;
5612;SDS011;2828;53.582;9.956;2022-08-01T07:07:07;21.43;;;7.50;;
5612;SDS011;2828;53.582;9.956;2022-08-01T07:09:33;12.53;;;6.50;;
5612;SDS011;2828;53.582;9.956;2022-08-01T07:11:59;12.67;;;6.70;;
5612;SDS011;2828;53.582;9.956;2022-08-01T07:14:25;17.03;;;6.80;;
5612;SDS011;2828;53.582;9.956;2022-08-01T07:16:52;13.23;;;7.03;;
5612;SDS011;2828;53.582;9.956;2022-08-01T07:19:18;20.70;;;7.20;;
5612;SDS011;2828;53.582;9.956;2022-08-01T07:21:44;25.07;;;8.70;;
5612;SDS011;2828;53.582;9.956;2022-08-01T07:24:11;19.73;;;8.60;;
5612;SDS011;2828;53.582;9.956;2022-08-01T07:26:37;19.50;;;8.40;;
5612;SDS011;2828;53.582;9.956;2022-08-01T07:29:03;16.67;;;8.40;;
5612;SDS011;2828;53.582;9.956;2022-08-01T07:31:30;16.23;;;7.87;;
5612;SDS011;2828;53.582;9.956;2022-08-01T07:33:56;22.10;;;7.97;;
5612;SDS011;2828;53.582;9.956;2022-08-01T07:36:22;16.73;;;7.00;;
5612;SDS011;2828;53.582;9.956;2022-08-01T07:38:48;20.03;;;7.30;;
5612;SDS011;2828;53.582;9.956;2022-08-01T07:41:14;20.10;;;7.23;;
5612;SDS011;2828;53.582;9.956;2022-08-01T07:43:40;10.30;;;5.70;;
5612;SDS011;2828;53.582;9.956;2022-08-01T07:46:06;13.47;;;5.20;;
5612;SDS011;2828;53.582;9.956;2022-08-01T07:48:32;11.77;;;4.53;;
5612;SDS011;2828;53.582;9.956;2022-08-01T07:50:58;14.07;;;4.60;;
5612;SDS011;2828;53.582;9.956;2022-08-01T07:53:24;5.90;;;3.47;;
5612;SDS011;2828;53.582;9.956;2022-08-01T07:55:50;11.20;;;3.30;;
5612;SDS011;2828;53.582;9.956;2022-08-01T07:58:16;8.47;;;3.43;;
5612;SDS011;2828;53.582;9.956;2022-08-01T08:00:42;12.47;;;3.70;;
5612;SDS011;2828;53.582;9.956;2022-08-01T08:03:09;3.63;;;3.30;;
5612;SDS011;2828;53.582;9.956;2022-08-01T08:05:35;7.67;;;3.27;;
5612;SDS011;2828;53.582;9.956;2022-08-01T08:08:03;9.80;;;3.20;;
5612;SDS011;2828;53.582;9.956;2022-08-01T08:10:30;8.60;;;2.90;;
5612;SDS011;2828;53.582;9.956;2022-08-01T08:12:56;4.90;;;2.70;;
5612;SDS011;2828;53.582;9.956;2022-08-01T08:15:22;4.73;;;2.20;;
5612;SDS011;2828;53.582;9.956;2022-08-01T08:17:48;7.00;;;2.97;;
5612;SDS011;2828;53.582;9.956;2022-08-01T08:20:14;6.40;;;3.07;;
5612;SDS011;2828;53.582;9.956;2022-08-01T08:22:40;7.33;;;3.00;;
5612;SDS011;2828;53.582;9.956;2022-08-01T08:25:07;11.73;;;3.00;;
5612;SDS011;2828;53.582;9.956;2022-08-01T08:27:34;6.33;;;3.30;;
5612;SDS011;2828;53.582;9.956;2022-08-01T08:30:00;11.67;;;3.30;;
5612;SDS011;2828;53.582;9.956;2022-08-01T08:32:26;11.33;;;3.60;;
5612;SDS011;2828;53.582;9.956;2022-08-01T08:34:52;5.47;;;3.33;;
5612;SDS011;2828;53.582;9.956;2022-08-01T08:37:18;4.90;;;3.10;;
5612;SDS011;2828;53.582;9.956;2022-08-01T08:39:45;7.27;;;3.13;;
5612;SDS011;2828;53.582;9.956;2022-08-01T08:42:12;13.40;;;3.47;;
5612;SDS011;2828;53.582;9.956;2022-08-01T08:44:39;12.80;;;3.10;;
5612;SDS011;2828;53.582;9.956;2022-08-01T08:47:06;14.60;;;3.27;;
5612;SDS011;2828;53.582;9.956;2022-08-01T08:49:33;12.30;;;3.57;;
5612;SDS011;2828;53.582;9.956;2022-08-01T08:51:59;10.57;;;2.70;;
5612;SDS011;2828;53.582;9.956;2022-08-01T08:54:26;6.40;;;2.97;;
5612;SDS011;2828;53.582;9.956;2022-08-01T08:56:53;11.53;;;3.00;;
5612;SDS011;2828;53.582;9.956;2022-08-01T08:59:19;7.80;;;2.83;;
5612;SDS011;2828;53.582;9.956;2022-08-01T09:01:46;10.50;;;2.57;;
5612;SDS011;2828;53.582;9.956;2022-08-01T09:04:12;4.53;;;2.60;;
5612;SDS011;2828;53.582;9.956;2022-08-01T09:06:38;6.00;;;2.73;;
5612;SDS011;2828;53.582;9.956;2022-08-01T09:09:05;5.43;;;2.33;;
5612;SDS011;2828;53.582;9.956;2022-08-01T09:11:31;16.17;;;3.40;;
5612;SDS011;2828;53.582;9.956;2022-08-01T09:14:08;4.77;;;2.67;;
5612;SDS011;2828;53.582;9.956;2022-08-01T09:16:35;8.53;;;2.63;;
5612;SDS011;2828;53.582;9.956;2022-08-01T09:21:33;9.50;;;2.77;;
5612;SDS011;2828;53.582;9.956;2022-08-01T09:23:59;10.60;;;3.67;;
5612;SDS011;2828;53.582;9.956;2022-08-01T09:26:31;8.70;;;2.90;;
5612;SDS011;2828;53.582;9.956;2022-08-01T09:28:58;7.30;;;2.30;;
5612;SDS011;2828;53.582;9.956;2022-08-01T09:31:24;8.33;;;3.37;;
5612;SDS011;2828;53.582;9.956;2022-08-01T09:33:56;11.17;;;3.30;;
5612;SDS011;2828;53.582;9.956;2022-08-01T09:36:51;6.23;;;3.03;;
5612;SDS011;2828;53.582;9.956;2022-08-01T09:39:19;13.30;;;3.60;;
5612;SDS011;2828;53.582;9.956;2022-08-01T09:41:46;12.60;;;3.50;;
5612;SDS011;2828;53.582;9.956;2022-08-01T09:44:12;11.10;;;3.20;;
5612;SDS011;2828;53.582;9.956;2022-08-01T09:46:51;10.77;;;3.60;;
5612;SDS011;2828;53.582;9.956;2022-08-01T09:49:28;7.67;;;3.77;;
5612;SDS011;2828;53.582;9.956;2022-08-01T09:51:54;21.77;;;4.70;;
5612;SDS011;2828;53.582;9.956;2022-08-01T09:54:28;22.40;;;6.90;;
5612;SDS011;2828;53.582;9.956;2022-08-01T09:56:54;19.50;;;4.50;;
5612;SDS011;2828;53.582;9.956;2022-08-01T09:59:36;9.00;;;4.30;;
5612;SDS011;2828;53.582;9.956;2022-08-01T10:02:03;9.70;;;3.93;;
5612;SDS011;2828;53.582;9.956;2022-08-01T10:04:29;9.80;;;4.83;;
5612;SDS011;2828;53.582;9.956;2022-08-01T10:07:04;8.70;;;4.77;;
5612;SDS011;2828;53.582;9.956;2022-08-01T10:09:31;7.10;;;4.10;;
5612;SDS011;2828;53.582;9.956;2022-08-01T10:11:58;12.33;;;4.40;;
5612;SDS011;2828;53.582;9.956;2022-08-01T10:14:25;9.27;;;3.80;;
5612;SDS011;2828;53.582;9.956;2022-08-01T10:16:58;8.10;;;4.23;;
5612;SDS011;2828;53.582;9.956;2022-08-01T10:19:25;14.50;;;3.80;;
5612;SDS011;2828;53.582;9.956;2022-08-01T10:21:52;11.07;;;3.43;;
5612;SDS011;2828;53.582;9.956;2022-08-01T10:24:22;7.03;;;3.20;;
5612;SDS011;2828;53.582;9.956;2022-08-01T10:26:49;8.33;;;3.43;;
5612;SDS011;2828;53.582;9.956;2022-08-01T10:29:16;6.33;;;2.87;;
5612;SDS011;2828;53.582;9.956;2022-08-01T10:31:44;11.10;;;5.10;;
5612;SDS011;2828;53.582;9.956;2022-08-01T10:34:10;10.73;;;2.90;;
5612;SDS011;2828;53.582;9.956;2022-08-01T10:36:36;3.60;;;2.50;;
5612;SDS011;2828;53.582;9.956;2022-08-01T10:39:04;16.97;;;2.63;;
5612;SDS011;2828;53.582;9.956;2022-08-01T10:41:32;9.87;;;3.00;;
5612;SDS011;2828;53.582;9.956;2022-08-01T10:44:00;7.43;;;2.33;;
5612;SDS011;2828;53.582;9.956;2022-08-01T10:46:27;7.67;;;2.43;;
5612;SDS011;2828;53.582;9.956;2022-08-01T10:49:03;8.00;;;2.40;;
5612;SDS011;2828;53.582;9.956;2022-08-01T10:51:30;8.23;;;3.13;;
5612;SDS011;2828;53.582;9.956;2022-08-01T10:53:56;4.10;;;2.53;;
5612;SDS011;2828;53.582;9.956;2022-08-01T10:56:26;4.37;;;1.70;;
5612;SDS011;2828;53.582;9.956;2022-08-01T10:59:03;7.83;;;2.43;;
5612;SDS011;2828;53.582;9.956;2022-08-01T11:01:30;7.57;;;2.33;;
5612;SDS011;2828;53.582;9.956;2022-08-01T11:06:26;9.93;;;2.23;;
5612;SDS011;2828;53.582;9.956;2022-08-01T11:08:54;6.20;;;2.07;;
5612;SDS011;2828;53.582;9.956;2022-08-01T11:11:20;5.63;;;1.93;;
5612;SDS011;2828;53.582;9.956;2022-08-01T11:14:05;2.10;;;1.50;;
5612;SDS011;2828;53.582;9.956;2022-08-01T11:16:40;6.70;;;1.90;;
5612;SDS011;2828;53.582;9.956;2022-08-01T11:19:07;14.60;;;1.90;;
5612;SDS011;2828;53.582;9.956;2022-08-01T11:27:35;5.47;;;2.10;;
5612;SDS011;2828;53.582;9.956;2022-08-01T11:32:52;8.10;;;1.80;;
5612;SDS011;2828;53.582;9.956;2022-08-01T11:35:19;4.20;;;1.60;;
5612;SDS011;2828;53.582;9.956;2022-08-01T11:37:46;6.90;;;1.97;;
5612;SDS011;2828;53.582;9.956;2022-08-01T11:40:19;9.13;;;1.60;;
5612;SDS011;2828;53.582;9.956;2022-08-01T11:42:50;6.70;;;1.37;;
5612;SDS011;2828;53.582;9.956;2022-08-01T11:45:16;5.60;;;2.00;;
5612;SDS011;2828;53.582;9.956;2022-08-01T11:47:42;4.80;;;1.60;;
5612;SDS011;2828;53.582;9.956;2022-08-01T11:53:00;5.97;;;1.83;;
5612;SDS011;2828;53.582;9.956;2022-08-01T11:55:28;7.27;;;1.50;;
5612;SDS011;2828;53.582;9.956;2022-08-01T11:58:12;4.17;;;1.60;;
5612;SDS011;2828;53.582;9.956;2022-08-01T12:00:38;5.60;;;1.70;;
5612;SDS011;2828;53.582;9.956;2022-08-01T12:03:05;8.80;;;1.87;;
5612;SDS011;2828;53.582;9.956;2022-08-01T12:05:32;7.63;;;1.10;;
5612;SDS011;2828;53.582;9.956;2022-08-01T12:07:59;2.53;;;0.93;;
5612;SDS011;2828;53.582;9.956;2022-08-01T12:10:26;5.00;;;1.10;;
5612;SDS011;2828;53.582;9.956;2022-08-01T12:12:59;7.23;;;1.50;;
5612;SDS011;2828;53.582;9.956;2022-08-01T12:15:29;10.40;;;1.90;;
5612;SDS011;2828;53.582;9.956;2022-08-01T12:17:55;3.07;;;1.40;;
5612;SDS011;2828;53.582;9.956;2022-08-01T12:20:22;4.00;;;1.13;;
5612;SDS011;2828;53.582;9.956;2022-08-01T12:22:52;1.63;;;1.30;;
5612;SDS011;2828;53.582;9.956;2022-08-01T12:25:19;7.60;;;1.53;;
5612;SDS011;2828;53.582;9.956;2022-08-01T12:27:45;9.00;;;1.50;;
5612;SDS011;2828;53.582;9.956;2022-08-01T12:30:12;12.27;;;1.67;;
5612;SDS011;2828;53.582;9.956;2022-08-01T12:32:39;7.27;;;1.40;;
5612;SDS011;2828;53.582;9.956;2022-08-01T12:37:34;2.43;;;1.17;;
5612;SDS011;2828;53.582;9.956;2022-08-01T12:40:01;2.53;;;1.23;;
5612;SDS011;2828;53.582;9.956;2022-08-01T12:42:27;5.78;;;1.25;;
5612;SDS011;2828;53.582;9.956;2022-08-01T12:44:53;5.63;;;1.83;;
5612;SDS011;2828;53.582;9.956;2022-08-01T12:47:20;8.57;;;1.47;;
5612;SDS011;2828;53.582;9.956;2022-08-01T12:49:46;7.37;;;1.17;;
5612;SDS011;2828;53.582;9.956;2022-08-01T12:52:13;6.90;;;1.50;;
5612;SDS011;2828;53.582;9.956;2022-08-01T12:55:01;6.28;;;1.35;;
5612;SDS011;2828;53.582;9.956;2022-08-01T12:57:27;10.03;;;2.03;;
5612;SDS011;2828;53.582;9.956;2022-08-01T13:00:04;4.60;;;1.10;;
5612;SDS011;2828;53.582;9.956;2022-08-01T13:02:34;6.77;;;1.40;;
5612;SDS011;2828;53.582;9.956;2022-08-01T13:05:00;5.50;;;1.60;;
5612;SDS011;2828;53.582;9.956;2022-08-01T13:07:37;6.70;;;1.23;;
5612;SDS011;2828;53.582;9.956;2022-08-01T13:10:03;3.57;;;1.10;;
5612;SDS011;2828;53.582;9.956;2022-08-01T13:12:29;2.70;;;1.10;;
5612;SDS011;2828;53.582;9.956;2022-08-01T13:14:56;1.40;;;1.00;;
5612;SDS011;2828;53.582;9.956;2022-08-01T13:17:30;5.77;;;1.57;;
5612;SDS011;2828;53.582;9.956;2022-08-01T13:19:57;3.03;;;1.40;;
5612;SDS011;2828;53.582;9.956;2022-08-01T13:22:34;3.37;;;1.40;;
5612;SDS011;2828;53.582;9.956;2022-08-01T13:25:13;6.20;;;1.90;;
5612;SDS011;2828;53.582;9.956;2022-08-01T13:27:39;12.53;;;1.80;;
5612;SDS011;2828;53.582;9.956;2022-08-01T13:30:13;5.23;;;1.73;;
5612;SDS011;2828;53.582;9.956;2022-08-01T13:32:39;5.67;;;2.70;;
5612;SDS011;2828;53.582;9.956;2022-08-01T13:35:09;1.50;;;1.33;;
5612;SDS011;2828;53.582;9.956;2022-08-01T13:37:41;5.07;;;1.70;;
5612;SDS011;2828;53.582;9.956;2022-08-01T13:40:09;2.70;;;1.43;;
5612;SDS011;2828;53.582;9.956;2022-08-01T13:42:35;2.60;;;1.10;;
5612;SDS011;2828;53.582;9.956;2022-08-01T13:45:02;3.60;;;1.40;;
5612;SDS011;2828;53.582;9.956;2022-08-01T13:47:29;5.40;;;1.40;;
5612;SDS011;2828;53.582;9.956;2022-08-01T13:49:59;2.47;;;1.50;;
5612;SDS011;2828;53.582;9.956;2022-08-01T13:52:27;9.33;;;1.63;;
5612;SDS011;2828;53.582;9.956;2022-08-01T13:54:53;8.30;;;1.80;;
5612;SDS011;2828;53.582;9.956;2022-08-01T13:57:19;6.40;;;1.50;;
5612;SDS011;2828;53.582;9.956;2022-08-01T13:59:46;2.37;;;1.40;;
5612;SDS011;2828;53.582;9.956;2022-08-01T14:02:13;3.77;;;1.27;;
5612;SDS011;2828;53.582;9.956;2022-08-01T14:04:39;1.87;;;1.50;;
5612;SDS011;2828;53.582;9.956;2022-08-01T14:07:05;4.27;;;1.30;;
5612;SDS011;2828;53.582;9.956;2022-08-01T14:09:32;2.90;;;1.63;;
5612;SDS011;2828;53.582;9.956;2022-08-01T14:11:58;4.23;;;1.37;;
5612;SDS011;2828;53.582;9.956;2022-08-01T14:14:24;4.90;;;1.57;;
5612;SDS011;2828;53.582;9.956;2022-08-01T14:16:50;4.57;;;1.30;;
5612;SDS011;2828;53.582;9.956;2022-08-01T14:19:16;5.63;;;1.47;;
5612;SDS011;2828;53.582;9.956;2022-08-01T14:21:42;6.73;;;1.40;;
5612;SDS011;2828;53.582;9.956;2022-08-01T14:24:08;7.60;;;1.63;;
5612;SDS011;2828;53.582;9.956;2022-08-01T14:26:35;8.40;;;2.40;;
5612;SDS011;2828;53.582;9.956;2022-08-01T14:29:01;3.23;;;1.53;;
5612;SDS011;2828;53.582;9.956;2022-08-01T14:31:27;5.10;;;1.87;;
5612;SDS011;2828;53.582;9.956;2022-08-01T14:33:54;6.07;;;1.73;;
5612;SDS011;2828;53.582;9.956;2022-08-01T14:36:21;5.27;;;1.60;;
5612;SDS011;2828;53.582;9.956;2022-08-01T14:38:47;6.80;;;1.90;;
5612;SDS011;2828;53.582;9.956;2022-08-01T14:41:14;6.80;;;1.73;;
5612;SDS011;2828;53.582;9.956;2022-08-01T14:43:40;6.40;;;1.43;;
5612;SDS011;2828;53.582;9.956;2022-08-01T14:46:06;7.80;;;1.87;;
5612;SDS011;2828;53.582;9.956;2022-08-01T14:48:34;6.63;;;1.70;;
5612;SDS011;2828;53.582;9.956;2022-08-01T14:51:01;7.10;;;1.60;;
5612;SDS011;2828;53.582;9.956;2022-08-01T14:53:28;6.63;;;1.70;;
5612;SDS011;2828;53.582;9.956;2022-08-01T14:55:54;5.53;;;1.80;;
5612;SDS011;2828;53.582;9.956;2022-08-01T14:58:20;6.63;;;1.80;;
5612;SDS011;2828;53.582;9.956;2022-08-01T15:00:46;3.30;;;1.63;;
5612;SDS011;2828;53.582;9.956;2022-08-01T15:03:12;2.40;;;1.37;;
5612;SDS011;2828;53.582;9.956;2022-08-01T15:05:38;2.83;;;1.90;;
5612;SDS011;2828;53.582;9.956;2022-08-01T15:08:05;2.17;;;1.27;;
5612;SDS011;2828;53.582;9.956;2022-08-01T15:10:31;4.20;;;1.93;;
5612;SDS011;2828;53.582;9.956;2022-08-01T15:12:58;5.63;;;1.50;;
5612;SDS011;2828;53.582;9.956;2022-08-01T15:15:25;4.90;;;1.97;;
5612;SDS011;2828;53.582;9.956;2022-08-01T15:17:57;6.10;;;2.83;;
5612;SDS011;2828;53.582;9.956;2022-08-01T15:20:28;9.00;;;2.03;;
5612;SDS011;2828;53.582;9.956;2022-08-01T15:22:55;5.13;;;1.73;;
5612;SDS011;2828;53.582;9.956;2022-08-01T15:25:21;3.40;;;1.90;;
5612;SDS011;2828;53.582;9.956;2022-08-01T15:27:47;8.63;;;1.90;;
5612;SDS011;2828;53.582;9.956;2022-08-01T15:30:13;4.90;;;1.67;;
5612;SDS011;2828;53.582;9.956;2022-08-01T15:32:39;7.70;;;1.97;;
5612;SDS011;2828;53.582;9.956;2022-08-01T15:35:05;16.73;;;2.53;;